Luseland, Canada
Current Conditions -  °F | °C
As of 8:00 PM on Saturday 25 Oct 2014 (Local Time) from CYKY Reporting Station
Broken Clouds Broken Clouds  
Wind Chill: 34°   Ceiling: 7000
Heat Index: 43°   Visibility: 15mi
Dew Point: 30°   Wind: 20mph
Humidity: 61%   Direction: 100°E
Pressure: 29.7"   Gusts: 26mph
Location:  52.08°N, 109.43°W
Report Text: CYKY 260200Z 10017G23KT 15SM BKN070 BKN240 06/M01 A2970 RMK AC5CI2 SLP084
Loading
Personal Weather Stations






























Interactive Weather Map
Tropical Storm Tracking
New forecast layout! Learn more

10-Day Weather Forecast

Advertisements
Track Severe Weather on mobile